Piper Inness — WDC3984 — position and weather

sailwx.info

Track history (hours):
 
Tides and Currents Weather Stations Pressure Air Temp Water Temp Dewpoint Dewpoint Depression Visibility Wind Speed Wind Dir Waves Ship Positions

Piper Inness

Owner: Foss Maritime Co, Seattle, WA. More information available from US FCC via Universal Licensing System and Coast Guard Vessel Documentation Center.

Last reported at 2016-Sep-01 01:34 UTC. Time now 2016-Sep-01 02:00 UTC.
Position N 33°29' W 118°04'.

; draft 2 m.

Type: Other ship. MMSI: 367017440.

Date/timePositionNaut miles runAvg speedWind from/ knotsBaromVisibWave heightAir tempDewpointWater temp
2016-Sep-01 01:34N 33°29' W 118°04'1616.4
2016-Sep-01 00:33N 33°44' W 118°12'2 2.4
2016-Aug-31 23:33N 33°46' W 118°13'0 0.0
2016-Aug-31 22:29N 33°46' W 118°13'0 0.0
2016-Aug-31 21:32N 33°46' W 118°13'0 0.0
2016-Aug-31 19:29N 33°46' W 118°13'0 0.0
2016-Aug-31 06:23N 33°46' W 118°13'0 0.0
2016-Aug-31 05:26N 33°46' W 118°13'0 0.0
2016-Aug-31 02:20N 33°46' W 118°13'0 0.0
2016-Aug-31 01:29N 33°46' W 118°13'0 0.0
2016-Aug-31 00:29N 33°46' W 118°13'0 0.0
2016-Aug-30 23:29N 33°46' W 118°13'0 0.0
2016-Aug-30 22:29N 33°46' W 118°13'0 0.0
2016-Aug-30 21:32N 33°46' W 118°13'0 0.0
2016-Aug-30 20:32N 33°46' W 118°13'0 0.0
2016-Aug-30 16:11N 33°46' W 118°13'0 0.0
2016-Aug-30 15:32N 33°46' W 118°13'0 0.0
2016-Aug-30 12:17N 33°46' W 118°13'0 0.0
2016-Aug-30 11:26N 33°46' W 118°13'0 0.0
2016-Aug-30 10:29N 33°46' W 118°13'0 0.0
2016-Aug-30 09:32N 33°46' W 118°13'0 0.0
2016-Aug-30 08:29N 33°46' W 118°13'0 0.0
2016-Aug-30 07:32N 33°46' W 118°13'0 0.0
2016-Aug-30 06:23N 33°46' W 118°13'0 0.0
2016-Aug-30 05:26N 33°46' W 118°13'0 0.0
2016-Aug-30 04:29N 33°46' W 118°13'0 0.0
2016-Aug-30 03:32N 33°46' W 118°13'0 0.0
2016-Aug-30 02:26N 33°46' W 118°13'0 0.0
2016-Aug-30 01:29N 33°46' W 118°13'0 0.0
2016-Aug-29 23:32N 33°46' W 118°13'0 0.0
2016-Aug-29 22:26N 33°46' W 118°13'0 0.0
2016-Aug-29 21:29N 33°46' W 118°13'0 0.0
2016-Aug-29 20:32N 33°46' W 118°13'0 0.0
2016-Aug-29 17:20N 33°46' W 118°13'0 0.0
2016-Aug-29 16:26N 33°46' W 118°13'0 0.0
2016-Aug-29 15:26N 33°46' W 118°13'0 0.0
2016-Aug-29 14:20N 33°46' W 118°13'0 0.0
2016-Aug-29 13:29N 33°46' W 118°13'0 0.0
2016-Aug-29 12:32N 33°46' W 118°13'0 0.0
2016-Aug-29 11:14N 33°46' W 118°13'0 0.0
2016-Aug-29 10:29N 33°46' W 118°13'0 0.0
2016-Aug-29 09:32N 33°46' W 118°13'0 0.0
2016-Aug-29 08:32N 33°46' W 118°13'0 0.0
2016-Aug-29 07:32N 33°46' W 118°13'0 0.0
2016-Aug-29 06:23N 33°46' W 118°13'0 0.0
2016-Aug-29 05:32N 33°46' W 118°13'0 0.0
2016-Aug-29 04:29N 33°46' W 118°13'0 0.0
2016-Aug-29 03:32N 33°46' W 118°13'0 0.0
2016-Aug-29 02:32N 33°46' W 118°13'0 0.0
2016-Aug-29 01:29N 33°46' W 118°13'0 0.0
2016-Aug-29 00:14N 33°46' W 118°13'0 0.0
2016-Aug-28 23:32N 33°46' W 118°13'0 0.0
2016-Aug-28 22:26N 33°46' W 118°13'0 0.0
2016-Aug-28 20:31N 33°46' W 118°13'1 1.4
2016-Aug-28 19:33N 33°45' W 118°13'1514.5
2016-Aug-28 18:33N 33°32' W 118°05'1717.1
2016-Aug-28 17:33N 33°16' W 117°57'6 5.6
2016-Aug-28 16:32N 33°11' W 117°56'6 6.4
2016-Aug-28 15:34N 33°05' W 117°52'1 0.9
2016-Aug-28 14:33N 33°05' W 117°52'1 0.8
2016-Aug-28 13:34N 33°04' W 117°52'2 1.9
2016-Aug-28 12:33N 33°03' W 117°50'1 1.4
2016-Aug-28 11:33N 33°02' W 117°49'1 0.9
2016-Aug-28 10:33N 33°01' W 117°48'1 0.9
2016-Aug-28 09:33N 33°00' W 117°48'2 1.8
2016-Aug-28 08:34N 32°60' W 117°46'1 1.2
2016-Aug-28 07:33N 32°59' W 117°45'2 1.5
2016-Aug-28 06:33N 32°57' W 117°44'1 0.5
2016-Aug-28 05:33N 32°57' W 117°43'0 0.2
2016-Aug-28 04:33N 32°57' W 117°44'2 1.5
2016-Aug-28 03:33N 32°55' W 117°43'1 1.1
2016-Aug-28 02:33N 32°54' W 117°43'1 1.1
2016-Aug-28 01:33N 32°54' W 117°44'1 0.6
2016-Aug-28 00:33N 32°54' W 117°44'2 1.7
2016-Aug-27 23:33N 32°55' W 117°45'1 0.8
2016-Aug-27 22:33N 32°55' W 117°46'1 1.1
2016-Aug-27 21:33N 32°55' W 117°47'1 0.7
2016-Aug-27 20:33N 32°56' W 117°48'1 0.7
2016-Aug-27 19:33N 32°56' W 117°49'1 0.7
2016-Aug-27 18:33N 32°55' W 117°48'1 1.1
2016-Aug-27 17:33N 32°56' W 117°49'0 0.4
2016-Aug-27 16:33N 32°57' W 117°49'2 2.2
2016-Aug-27 15:33N 32°59' W 117°50'5 4.6
2016-Aug-27 14:33N 33°03' W 117°53'4 4.0
2016-Aug-27 13:33N 33°06' W 117°55'2 2.4
2016-Aug-27 12:33N 33°08' W 117°56'6 5.7
2016-Aug-27 11:33N 33°13' W 117°60'1816.7
2016-Aug-27 10:29N 33°30' W 118°05'1515.4
2016-Aug-27 09:30N 33°44' W 118°13'3 0.2
2016-Aug-26 18:33N 33°43' W 118°16'0 0.4
2016-Aug-26 17:33N 33°44' W 118°16'3 2.8
2016-Aug-26 16:28N 33°45' W 118°13'2 0.3
2016-Aug-26 11:31N 33°46' W 118°13'0 0.0
2016-Aug-26 09:31N 33°46' W 118°13'0 0.0
2016-Aug-26 08:32N 33°46' W 118°13'0 0.0
2016-Aug-26 07:04N 33°46' W 118°13'2 4.5
2016-Aug-26 06:33N 33°44' W 118°12'3316.6
2016-Aug-26 04:33N 33°14' W 117°55'1212.0
2016-Aug-26 03:33N 33°03' W 117°50'2 2.4
2016-Aug-26 02:33N 33°05' W 117°51'2 2.4
2016-Aug-26 01:32N 33°04' W 117°49'1 0.9
2016-Aug-26 00:33N 33°03' W 117°49'2 2.0
2016-Aug-25 23:33N 33°01' W 117°49'1 0.8
2016-Aug-25 22:33N 33°00' W 117°48'2 2.0
2016-Aug-25 21:34N 32°59' W 117°47'1 0.7
2016-Aug-25 20:33N 32°59' W 117°48'1 1.1
2016-Aug-25 19:34N 32°58' W 117°47'1 0.7
2016-Aug-25 18:33N 32°57' W 117°47'2 1.6
2016-Aug-25 17:34N 32°56' W 117°45'2 1.6
2016-Aug-25 16:33N 32°55' W 117°46'1 1.2
2016-Aug-25 15:33N 32°54' W 117°45'2 2.4
2016-Aug-25 14:33N 32°52' W 117°42'2 2.3
2016-Aug-25 13:34N 32°50' W 117°41'3 3.1
2016-Aug-25 12:34N 32°49' W 117°45'1 1.1
2016-Aug-25 11:34N 32°49' W 117°46'1 1.0
2016-Aug-25 10:33N 32°50' W 117°47'1 0.7
2016-Aug-25 09:34N 32°51' W 117°47'2 1.6
2016-Aug-25 08:34N 32°52' W 117°49'1 0.9
2016-Aug-25 07:34N 32°53' W 117°49'2 1.9
2016-Aug-25 06:34N 32°55' W 117°50'7 3.5
2016-Aug-25 04:33N 33°01' W 117°53'3 2.6
2016-Aug-25 03:30N 33°03' W 117°54'4 3.9
2016-Aug-25 02:33N 33°06' W 117°57'1 1.3
2016-Aug-25 01:33N 33°07' W 117°58'3 3.1
2016-Aug-25 00:34N 33°09' W 117°55'8 7.9
2016-Aug-24 23:34N 33°17' W 117°58'1717.4
2016-Aug-24 22:33N 33°33' W 118°04'1212.4
2016-Aug-24 21:34N 33°44' W 118°12'3 0.9
2016-Aug-24 18:33N 33°46' W 118°13'0 0.4
2016-Aug-24 17:33N 33°46' W 118°13'0 0.1
2016-Aug-24 10:23N 33°46' W 118°13'0 0.0
2016-Aug-24 09:23N 33°46' W 118°13'0 0.0
2016-Aug-24 08:26N 33°46' W 118°13'0 0.0
2016-Aug-24 07:32N 33°46' W 118°13'0 0.0
2016-Aug-24 06:08N 33°46' W 118°13'0 0.0
2016-Aug-24 00:32N 33°46' W 118°13'0 0.0
2016-Aug-23 23:32N 33°46' W 118°13'0 0.0
2016-Aug-23 20:26N 33°46' W 118°13'0 0.0
2016-Aug-23 17:32N 33°46' W 118°13'0 0.0
2016-Aug-23 10:11N 33°46' W 118°13'0 0.0
2016-Aug-23 04:11N 33°46' W 118°13'0 0.0
2016-Aug-23 03:32N 33°46' W 118°13'0 0.0
2016-Aug-23 02:32N 33°46' W 118°13'0 0.0
2016-Aug-23 00:32N 33°46' W 118°13'0 0.0
2016-Aug-22 23:29N 33°46' W 118°13'0 0.0
2016-Aug-22 22:14N 33°46' W 118°13'0 0.0
2016-Aug-22 21:23N 33°46' W 118°13'0 0.0
2016-Aug-22 15:23N 33°46' W 118°13'0 0.0
2016-Aug-22 14:23N 33°46' W 118°13'0 0.0
2016-Aug-22 13:32N 33°46' W 118°13'0 0.0
2016-Aug-22 12:29N 33°46' W 118°13'0 0.0
2016-Aug-22 11:32N 33°46' W 118°13'0 0.0
2016-Aug-22 09:26N 33°46' W 118°13'0 0.0
2016-Aug-22 08:29N 33°46' W 118°13'0 0.0
2016-Aug-22 07:32N 33°46' W 118°13'0 0.0
2016-Aug-22 04:20N 33°46' W 118°13'0 0.0
2016-Aug-22 03:32N 33°46' W 118°13'0 0.0
2016-Aug-22 02:26N 33°46' W 118°13'  
Track history (hours):
 
Tides and Currents Weather Stations Pressure Air Temp Water Temp Dewpoint Dewpoint Depression Visibility Wind Speed Wind Dir Waves Ship Positions

Piper Inness

Owner: Foss Maritime Co, Seattle, WA. More information available from US FCC via Universal Licensing System and Coast Guard Vessel Documentation Center.

Last reported at 2016-Sep-01 01:34 UTC. Time now 2016-Sep-01 02:00 UTC.
Position N 33°29' W 118°04'.

; draft 2 m.

Type: Other ship. MMSI: 367017440.

Date/timePositionNaut miles runAvg speedWind from/ knotsBaromVisibWave heightAir tempDewpointWater temp
2016-Sep-01 01:34N 33°29' W 118°04'1616.4
2016-Sep-01 00:33N 33°44' W 118°12'2 2.4
2016-Aug-31 23:33N 33°46' W 118°13'0 0.0
2016-Aug-31 22:29N 33°46' W 118°13'0 0.0
2016-Aug-31 21:32N 33°46' W 118°13'0 0.0
2016-Aug-31 19:29N 33°46' W 118°13'0 0.0
2016-Aug-31 06:23N 33°46' W 118°13'0 0.0
2016-Aug-31 05:26N 33°46' W 118°13'0 0.0
2016-Aug-31 02:20N 33°46' W 118°13'0 0.0
2016-Aug-31 01:29N 33°46' W 118°13'0 0.0
2016-Aug-31 00:29N 33°46' W 118°13'0 0.0
2016-Aug-30 23:29N 33°46' W 118°13'0 0.0
2016-Aug-30 22:29N 33°46' W 118°13'0 0.0
2016-Aug-30 21:32N 33°46' W 118°13'0 0.0
2016-Aug-30 20:32N 33°46' W 118°13'0 0.0
2016-Aug-30 16:11N 33°46' W 118°13'0 0.0
2016-Aug-30 15:32N 33°46' W 118°13'0 0.0
2016-Aug-30 12:17N 33°46' W 118°13'0 0.0
2016-Aug-30 11:26N 33°46' W 118°13'0 0.0
2016-Aug-30 10:29N 33°46' W 118°13'0 0.0
2016-Aug-30 09:32N 33°46' W 118°13'0 0.0
2016-Aug-30 08:29N 33°46' W 118°13'0 0.0
2016-Aug-30 07:32N 33°46' W 118°13'0 0.0
2016-Aug-30 06:23N 33°46' W 118°13'0 0.0
2016-Aug-30 05:26N 33°46' W 118°13'0 0.0
2016-Aug-30 04:29N 33°46' W 118°13'0 0.0
2016-Aug-30 03:32N 33°46' W 118°13'0 0.0
2016-Aug-30 02:26N 33°46' W 118°13'0 0.0
2016-Aug-30 01:29N 33°46' W 118°13'0 0.0
2016-Aug-29 23:32N 33°46' W 118°13'0 0.0
2016-Aug-29 22:26N 33°46' W 118°13'0 0.0
2016-Aug-29 21:29N 33°46' W 118°13'0 0.0
2016-Aug-29 20:32N 33°46' W 118°13'0 0.0
2016-Aug-29 17:20N 33°46' W 118°13'0 0.0
2016-Aug-29 16:26N 33°46' W 118°13'0 0.0
2016-Aug-29 15:26N 33°46' W 118°13'0 0.0
2016-Aug-29 14:20N 33°46' W 118°13'0 0.0
2016-Aug-29 13:29N 33°46' W 118°13'0 0.0
2016-Aug-29 12:32N 33°46' W 118°13'0 0.0
2016-Aug-29 11:14N 33°46' W 118°13'0 0.0
2016-Aug-29 10:29N 33°46' W 118°13'0 0.0
2016-Aug-29 09:32N 33°46' W 118°13'0 0.0
2016-Aug-29 08:32N 33°46' W 118°13'0 0.0
2016-Aug-29 07:32N 33°46' W 118°13'0 0.0
2016-Aug-29 06:23N 33°46' W 118°13'0 0.0
2016-Aug-29 05:32N 33°46' W 118°13'0 0.0
2016-Aug-29 04:29N 33°46' W 118°13'0 0.0
2016-Aug-29 03:32N 33°46' W 118°13'0 0.0
2016-Aug-29 02:32N 33°46' W 118°13'0 0.0
2016-Aug-29 01:29N 33°46' W 118°13'0 0.0
2016-Aug-29 00:14N 33°46' W 118°13'0 0.0
2016-Aug-28 23:32N 33°46' W 118°13'0 0.0
2016-Aug-28 22:26N 33°46' W 118°13'0 0.0
2016-Aug-28 20:31N 33°46' W 118°13'1 1.4
2016-Aug-28 19:33N 33°45' W 118°13'1514.5
2016-Aug-28 18:33N 33°32' W 118°05'1717.1
2016-Aug-28 17:33N 33°16' W 117°57'6 5.6
2016-Aug-28 16:32N 33°11' W 117°56'6 6.4
2016-Aug-28 15:34N 33°05' W 117°52'1 0.9
2016-Aug-28 14:33N 33°05' W 117°52'1 0.8
2016-Aug-28 13:34N 33°04' W 117°52'2 1.9
2016-Aug-28 12:33N 33°03' W 117°50'1 1.4
2016-Aug-28 11:33N 33°02' W 117°49'1 0.9
2016-Aug-28 10:33N 33°01' W 117°48'1 0.9
2016-Aug-28 09:33N 33°00' W 117°48'2 1.8
2016-Aug-28 08:34N 32°60' W 117°46'1 1.2
2016-Aug-28 07:33N 32°59' W 117°45'2 1.5
2016-Aug-28 06:33N 32°57' W 117°44'1 0.5
2016-Aug-28 05:33N 32°57' W 117°43'0 0.2
2016-Aug-28 04:33N 32°57' W 117°44'2 1.5
2016-Aug-28 03:33N 32°55' W 117°43'1 1.1
2016-Aug-28 02:33N 32°54' W 117°43'1 1.1
2016-Aug-28 01:33N 32°54' W 117°44'1 0.6
2016-Aug-28 00:33N 32°54' W 117°44'2 1.7
2016-Aug-27 23:33N 32°55' W 117°45'1 0.8
2016-Aug-27 22:33N 32°55' W 117°46'1 1.1
2016-Aug-27 21:33N 32°55' W 117°47'1 0.7
2016-Aug-27 20:33N 32°56' W 117°48'1 0.7
2016-Aug-27 19:33N 32°56' W 117°49'1 0.7
2016-Aug-27 18:33N 32°55' W 117°48'1 1.1
2016-Aug-27 17:33N 32°56' W 117°49'0 0.4
2016-Aug-27 16:33N 32°57' W 117°49'2 2.2
2016-Aug-27 15:33N 32°59' W 117°50'5 4.6
2016-Aug-27 14:33N 33°03' W 117°53'4 4.0
2016-Aug-27 13:33N 33°06' W 117°55'2 2.4
2016-Aug-27 12:33N 33°08' W 117°56'6 5.7
2016-Aug-27 11:33N 33°13' W 117°60'1816.7
2016-Aug-27 10:29N 33°30' W 118°05'1515.4
2016-Aug-27 09:30N 33°44' W 118°13'3 0.2
2016-Aug-26 18:33N 33°43' W 118°16'0 0.4
2016-Aug-26 17:33N 33°44' W 118°16'3 2.8
2016-Aug-26 16:28N 33°45' W 118°13'2 0.3
2016-Aug-26 11:31N 33°46' W 118°13'0 0.0
2016-Aug-26 09:31N 33°46' W 118°13'0 0.0
2016-Aug-26 08:32N 33°46' W 118°13'0 0.0
2016-Aug-26 07:04N 33°46' W 118°13'2 4.5
2016-Aug-26 06:33N 33°44' W 118°12'3316.6
2016-Aug-26 04:33N 33°14' W 117°55'1212.0
2016-Aug-26 03:33N 33°03' W 117°50'2 2.4
2016-Aug-26 02:33N 33°05' W 117°51'2 2.4
2016-Aug-26 01:32N 33°04' W 117°49'1 0.9
2016-Aug-26 00:33N 33°03' W 117°49'2 2.0
2016-Aug-25 23:33N 33°01' W 117°49'1 0.8
2016-Aug-25 22:33N 33°00' W 117°48'2 2.0
2016-Aug-25 21:34N 32°59' W 117°47'1 0.7
2016-Aug-25 20:33N 32°59' W 117°48'1 1.1
2016-Aug-25 19:34N 32°58' W 117°47'1 0.7
2016-Aug-25 18:33N 32°57' W 117°47'2 1.6
2016-Aug-25 17:34N 32°56' W 117°45'2 1.6
2016-Aug-25 16:33N 32°55' W 117°46'1 1.2
2016-Aug-25 15:33N 32°54' W 117°45'2 2.4
2016-Aug-25 14:33N 32°52' W 117°42'2 2.3
2016-Aug-25 13:34N 32°50' W 117°41'3 3.1
2016-Aug-25 12:34N 32°49' W 117°45'1 1.1
2016-Aug-25 11:34N 32°49' W 117°46'1 1.0
2016-Aug-25 10:33N 32°50' W 117°47'1 0.7
2016-Aug-25 09:34N 32°51' W 117°47'2 1.6
2016-Aug-25 08:34N 32°52' W 117°49'1 0.9
2016-Aug-25 07:34N 32°53' W 117°49'2 1.9
2016-Aug-25 06:34N 32°55' W 117°50'7 3.5
2016-Aug-25 04:33N 33°01' W 117°53'3 2.6
2016-Aug-25 03:30N 33°03' W 117°54'4 3.9
2016-Aug-25 02:33N 33°06' W 117°57'1 1.3
2016-Aug-25 01:33N 33°07' W 117°58'3 3.1
2016-Aug-25 00:34N 33°09' W 117°55'8 7.9
2016-Aug-24 23:34N 33°17' W 117°58'1717.4
2016-Aug-24 22:33N 33°33' W 118°04'1212.4
2016-Aug-24 21:34N 33°44' W 118°12'3 0.9
2016-Aug-24 18:33N 33°46' W 118°13'0 0.4
2016-Aug-24 17:33N 33°46' W 118°13'0 0.1
2016-Aug-24 10:23N 33°46' W 118°13'0 0.0
2016-Aug-24 09:23N 33°46' W 118°13'0 0.0
2016-Aug-24 08:26N 33°46' W 118°13'0 0.0
2016-Aug-24 07:32N 33°46' W 118°13'0 0.0
2016-Aug-24 06:08N 33°46' W 118°13'0 0.0
2016-Aug-24 00:32N 33°46' W 118°13'0 0.0
2016-Aug-23 23:32N 33°46' W 118°13'0 0.0
2016-Aug-23 20:26N 33°46' W 118°13'0 0.0
2016-Aug-23 17:32N 33°46' W 118°13'0 0.0
2016-Aug-23 10:11N 33°46' W 118°13'0 0.0
2016-Aug-23 04:11N 33°46' W 118°13'0 0.0
2016-Aug-23 03:32N 33°46' W 118°13'0 0.0
2016-Aug-23 02:32N 33°46' W 118°13'0 0.0
2016-Aug-23 00:32N 33°46' W 118°13'0 0.0
2016-Aug-22 23:29N 33°46' W 118°13'0 0.0
2016-Aug-22 22:14N 33°46' W 118°13'0 0.0
2016-Aug-22 21:23N 33°46' W 118°13'0 0.0
2016-Aug-22 15:23N 33°46' W 118°13'0 0.0
2016-Aug-22 14:23N 33°46' W 118°13'0 0.0
2016-Aug-22 13:32N 33°46' W 118°13'0 0.0
2016-Aug-22 12:29N 33°46' W 118°13'0 0.0
2016-Aug-22 11:32N 33°46' W 118°13'0 0.0
2016-Aug-22 09:26N 33°46' W 118°13'0 0.0
2016-Aug-22 08:29N 33°46' W 118°13'0 0.0
2016-Aug-22 07:32N 33°46' W 118°13'0 0.0
2016-Aug-22 04:20N 33°46' W 118°13'0 0.0
2016-Aug-22 03:32N 33°46' W 118°13'0 0.0
2016-Aug-22 02:26N 33°46' W 118°13'  

Dump ship's entire track history